Drummond Island, MI

1:12 PM EDT on May 27, 2015 (GMT -0400)
Presque Isle County | | Change Station
CLOSE
Current Station
Airport
Location: Rogers City,
Elevation: 669 ft
Nearby Weather Stations

Elev 669 ft 45.41 °N, 83.81 °W | Updated 17 minutes ago

Overcast
Overcast
71 °F
Feels Like 71 °F
N
18
Wind Variable Wind from SW
Gusts 33 mph

Today
High -- | Low -- °F
--% Chance of Precip.
Yesterday
High -- | Low -- °F
Precip. -- in
5:51 AM 9:13 PM
Waxing Gibbous, 68% visible
Pressure 29.79 in
Visibility 10.0 miles
Clouds Scattered Clouds 3900 ft
Overcast 4800 ft
Dew Point 56 °F
Humidity 60%
Rainfall 0.00 in
Snow Depth Not available.
UV 3 out of 12
Pollen 6.60 out of 12
Air Quality Not available.
Flu Activity Sporadic
METAR KPZQ 271655Z AUTO 22016G29KT 10SM SCT039 OVC048 22/14 A2979 RMK AO2 T02160135

More Conditions Fewer Conditions

Pressure 29.79 in
Visibility 10.0 miles
Clouds Scattered Clouds 3900 ft
Overcast 4800 ft
Dew Point 56 °F
Humidity 60%
Rainfall 0.00 in
Snow Depth Not available.
UV 3 out of 12
Pollen 6.60 out of 12
Air Quality Not available.
Flu Activity Sporadic
METAR KPZQ 271655Z AUTO 22016G29KT 10SM SCT039 OVC048 22/14 A2979 RMK AO2 T02160135

More Conditions Fewer Conditions

Nowcast | as of 1:00 PM EDT on May 27, 2015

At 2 PM...showers likely and chance of drizzle. Temperature 57. Southwest winds 10 mph. At 4 PM...rain and drizzle likely. Temperature 58. West winds 10 mph. At 6 PM...rain and drizzle likely. Temperature 58. West winds 10 mph. At 8 PM...rain and drizzle likely. Temperature 55. Northwest winds 10 mph.

×

10-Day Weather Forecast

Almanac

Astronomy

May. 27, 2015 Rise Set
Actual Time
Civil Twilight
Nautical Twilight
Astronomical Twilight
Moon
Length of Visible Light
Length of Day
Tomorrow will be .
, % of the Moon is Illuminated

Today's Extremes

State Highs State Lows

Community

WunderPhotos

Upload Photos

1,824,716 photos uploaded!

WunderBlogs® & News

Nearby

Air Quality

  Air Quality AQ Index Pollutant
Not available.

Snow Depth

Station Depth Elevation

Earthquake Activity

City Distance Mag. Time & Date
Minimum magnitude displayed is 2.5.

Coastal Water Temperatures

Place Temperature

Stations

Nearby Weather Stations

Station Location Temp. Windchill Dew Point Humidity Wind Precip. Elev Updated Type